• Join FlightAware (Why Join?)
  • Login
  • US Flag 
03:45AM EST


 

Airport Tracker/Info


-or-


 

Live Flight TrackerFlight Track Log ✈ UAL3740 ✈ 25-Apr-2013 ✈ KPVD - KIAD

Flight Track Log - Related Links

Times and Time Zones

All times are in EDT time to prevent confusion due to time zone crossing. See the UAL3740 flight status page for this flight to view local times or setup timezone preferences in your user account.

Time Position Orientation Groundspeed Altitude Reporting Facility
EDT Latitude Longitude Course Direction KTS MPH feet Rate Location/Type
10:19AM 41.8114 -71.5517 314° West 213 245 5,500  Level Boston Center
10:20AM 41.8472 -71.6319 301° West 236 272 8,500 2,820 Climbing Boston Center
10:21AM 41.8875 -71.7094 305° West 248 285 11,200 2,220 Climbing Boston Center
10:22AM 41.9172 -71.7983 294° West 259 298 13,000 1,920 Climbing Boston Center
10:23AM 41.9219 -71.9100 273° West 274 315 15,100 2,340 Climbing Boston Center
10:24AM 41.9244 -72.0356 272° West 296 341 17,700 1,920 Climbing Boston Center
10:25AM 41.9289 -72.1275 274° West 313 360 19,000 1,500 Climbing Boston Center
10:26AM 41.9333 -72.2614 273° West 318 366 20,800 1,800 Climbing Boston Center
10:27AM 41.9378 -72.3869 273° West 328 377 22,600 1,800 Climbing Boston Center
10:28AM 41.9314 -72.5069 266° West 334 384 24,500 1,560 Climbing Boston Center
10:29AM 41.8958 -72.6186 247° West 318 366 25,800 1,140 Climbing Boston Center
10:30AM 41.8603 -72.7300 247° West 323 372 26,800 1,020 Climbing Boston Center
10:31AM 41.8244 -72.8497 248° West 335 386 27,900 600 Climbing Boston Center
10:32AM 41.7864 -72.9719 247° West 348 400 28,000  Climbing Boston Center
10:33AM 41.7483 -73.0911 247° West 354 407 28,000  Level Boston Center
10:34AM 41.7350 -73.2247 262° West 354 407 28,000  Level Boston Center
10:35AM 41.7422 -73.3583 274° West 354 407 28,000  Level Boston Center
10:36AM 41.7453 -73.5058 272° West 354 407 28,000  Level Boston Center
10:37AM 41.7522 -73.6394 274° West 367 422 28,000  Level Boston Center
10:38AM 41.7611 -73.7592 276° West 362 417 28,000  Level Boston Center
10:40AM 41.6492 -73.9775 236° Southwest 321 369 28,000  Level New York Center
10:41AM 41.5703 -74.0431 212° Southwest 332 382 28,000  Level New York Center
10:42AM 41.4892 -74.1083 211° Southwest 352 405 28,000  Level New York Center
10:43AM 41.4017 -74.1842 213° Southwest 370 426 28,000  Level New York Center
10:44AM 41.3144 -74.2542 211° Southwest 375 432 28,000  Level New York Center
10:45AM 41.2508 -74.3586 231° Southwest 375 432 28,000  Level New York Center
10:46AM 41.1894 -74.4600 231° Southwest 367 422 28,000  Level New York Center
10:47AM 41.1297 -74.5697 234° Southwest 372 428 28,000  Level New York Center
10:48AM 41.0700 -74.6708 232° Southwest 366 421 28,000  Level New York Center
10:49AM 41.0081 -74.7828 234° Southwest 372 428 28,000  Level New York Center
10:50AM 40.9461 -74.8892 232° Southwest 372 428 28,000  Level New York Center
10:51AM 40.8842 -74.9922 232° Southwest 377 434 28,000  Level New York Center
10:52AM 40.8119 -75.0892 225° Southwest 377 434 28,000 -180 Level New York Center
10:53AM 40.7119 -75.1406 201° Southwest 367 422 27,700 -900 Descending New York Center
10:54AM 40.6478 -75.2403 230° Southwest 360 414 26,200 -1,500 Descending New York Center
10:55AM 40.5956 -75.3517 238° Southwest 360 414 24,700 -1,560 Descending New York Center
10:56AM 40.5433 -75.4603 238° Southwest 360 414 23,200 -1,560 Descending New York Center
10:57AM 40.4914 -75.5631 236° Southwest 355 409 21,700 -1,500 Descending New York Center
10:58AM 40.4417 -75.6606 236° Southwest 350 403 20,200 -900 Descending New York Center
10:59AM 40.3936 -75.7608 238° Southwest 340 391 20,000 -120 Descending New York Center
11:00AM 40.3436 -75.8553 235° Southwest 328 377 20,000  Level New York Center
11:01AM 40.2892 -75.9600 236° Southwest 328 377 20,000 -480 Level New York Center
11:02AM 40.2433 -76.0492 236° Southwest 311 358 19,100 -540 Descending New York Center
11:03AM 40.2350 -76.1436 263° West 288 331 19,000 -720 Descending New York Center
11:04AM 40.1831 -76.2292 232° Southwest 289 333 17,700 -1,440 Descending New York Center
11:06AM 40.0833 -76.3667 227° Southwest 293 337 15,000 -960 Descending Potomac TRACON
11:07AM 40.0333 -76.4667 237° Southwest 289 333 15,000  Level Potomac TRACON
11:08AM 40.0000 -76.5500 242° Southwest 290 334 15,000  Level Potomac TRACON
11:09AM 39.9667 -76.6333 242° Southwest 296 341 15,000  Level Potomac TRACON
11:10AM 39.9167 -76.7333 237° Southwest 291 335 15,000  Level Potomac TRACON
11:11AM 39.8667 -76.8167 232° Southwest 293 337 15,000 -480 Level Potomac TRACON
11:12AM 39.8333 -76.9000 243° Southwest 288 331 14,100 -660 Descending Potomac TRACON
11:13AM 39.7833 -77.0000 237° Southwest 291 335 13,700 -960 Descending Potomac TRACON
11:14AM 39.7500 -77.1000 247° West 296 341 12,100 -1,620 Descending Potomac TRACON
11:15AM 39.7000 -77.1667 226° Southwest 296 341 10,700 -1,140 Descending Potomac TRACON
11:16AM 39.6667 -77.2667 247° West 307 353 10,000 -360 Descending Potomac TRACON
11:17AM 39.6000 -77.3333 218° Southwest 282 325 10,000 -480 Level Potomac TRACON
11:18AM 39.5333 -77.3500 191° South 284 327 9,100 -1,320 Descending Potomac TRACON
11:19AM 39.4667 -77.3500 180° South 279 321 7,600 -1,140 Descending Potomac TRACON
11:20AM 39.3833 -77.3667 189° South 275 316 6,900 -1,020 Descending Potomac TRACON
11:21AM 39.3167 -77.3667 180° South 281 323 5,600 -1,140 Descending Potomac TRACON
11:22AM 39.2333 -77.3667 180° South 274 315 4,800 -900 Descending Potomac TRACON
11:23AM 39.1667 -77.3667 180° South 264 304 3,900 -420 Descending Potomac TRACON
11:24AM 39.0833 -77.3500 171° South 277 319 4,000  Climbing Potomac TRACON
11:25AM 39.0167 -77.3500 180° South 273 314 4,000 -120 Level Potomac TRACON
11:26AM 38.9333 -77.3500 180° South 278 320 3,800 -540 Descending Potomac TRACON
11:27AM 38.8667 -77.3500 180° South 244 281 3,000 -480 Descending Potomac TRACON
11:28AM 38.8000 -77.3667 191° South 225 259 3,000 -240 Level Potomac TRACON
11:29AM 38.8000 -77.4000 270° West 194 223 2,600 -600 Descending Potomac TRACON
11:30AM 38.8333 -77.4333 322° Northwest 181 208 1,900 -660 Descending Potomac TRACON
11:31AM 38.8833 -77.4333 360° North 143 165 1,300 -660 Descending Potomac TRACON
11:32AM 38.9167 -77.4333 360° North 134 154 600 -720 Descending Potomac TRACON